createdAt,value
2023-02-16T01:13:27.805Z,28.74
2023-02-16T01:14:27.875Z,32.45
2023-02-16T01:15:27.963Z,30.99
2023-02-16T01:16:27.983Z,32.43
2023-02-16T01:17:28.051Z,32.10
2023-02-16T01:18:28.106Z,30.80
2023-02-16T01:19:28.158Z,30.72
2023-02-16T01:20:28.225Z,31.53
2023-02-16T01:34:29.032Z,30.92
2023-02-16T01:35:29.103Z,31.24
2023-02-16T01:36:29.174Z,31.53
2023-02-16T01:37:29.227Z,30.14
2023-02-16T01:38:29.300Z,29.18
2023-02-16T01:39:29.350Z,31.54
2023-02-16T01:40:29.394Z,30.65
2023-02-16T01:41:29.476Z,28.84
2023-02-16T01:42:29.518Z,31.93
2023-02-16T01:43:29.583Z,32.39
2023-02-16T01:44:29.650Z,29.43
2023-02-16T01:45:29.714Z,30.12
2023-02-16T01:46:29.839Z,28.63
2023-02-16T01:47:29.850Z,31.63
2023-02-16T01:48:29.885Z,31.04
2023-02-16T01:49:29.949Z,30.06
2023-02-16T01:50:30.014Z,31.50
2023-02-16T01:51:30.078Z,28.32
2023-02-16T01:52:30.149Z,31.93
2023-02-16T01:53:30.198Z,31.90
2023-02-16T01:54:30.265Z,32.68
2023-02-16T01:55:30.324Z,30.00
2023-02-16T02:24:31.898Z,33.58
2023-02-16T02:25:31.942Z,32.15
2023-02-16T02:26:31.983Z,31.98
2023-02-16T02:27:32.043Z,32.32
2023-02-16T02:28:32.092Z,31.06
2023-02-16T02:29:32.149Z,33.71
2023-02-16T02:30:32.994Z,34.91
2023-02-16T02:31:32.363Z,29.52
2023-02-16T02:32:32.475Z,32.51
2023-02-16T02:33:32.395Z,28.89
2023-02-16T02:34:32.449Z,32.84
2023-02-16T02:35:32.496Z,32.38
2023-02-16T02:36:32.521Z,29.36
2023-02-16T02:37:32.566Z,31.69
2023-02-16T02:38:32.594Z,30.49
2023-02-16T02:39:32.676Z,31.56
2023-02-16T02:40:32.689Z,30.95
2023-02-16T02:41:32.734Z,30.58
2023-02-16T02:42:32.791Z,29.01
2023-02-16T02:43:32.854Z,27.20
2023-02-16T02:44:32.984Z,31.25
2023-02-16T02:45:32.958Z,29.17
2023-02-16T02:46:33.066Z,31.22
2023-02-16T02:47:33.040Z,30.84
2023-02-16T02:48:33.092Z,32.41
2023-02-16T02:49:33.144Z,30.01
2023-02-16T02:50:33.212Z,29.27
2023-02-16T02:51:33.268Z,31.61
2023-02-16T02:52:33.334Z,32.00
2023-02-16T02:53:33.394Z,28.97
2023-02-16T02:54:33.449Z,31.28
2023-02-16T02:55:33.514Z,32.83
2023-02-16T02:56:33.568Z,31.00
2023-02-16T02:57:33.621Z,29.25
2023-02-16T02:58:33.680Z,30.91
2023-02-16T02:59:33.758Z,31.55
2023-02-16T03:00:33.880Z,31.79
2023-02-16T03:01:33.761Z,31.15
2023-02-16T03:02:33.749Z,31.51
2023-02-16T03:03:33.738Z,30.11
2023-02-16T03:04:33.746Z,32.14
2023-02-16T03:05:33.751Z,28.38
2023-02-16T03:06:33.760Z,28.18
2023-02-16T03:07:33.776Z,30.12
2023-02-16T03:08:33.759Z,30.31
2023-02-16T03:09:33.769Z,30.16
2023-02-16T03:10:33.772Z,30.07
2023-02-16T03:11:33.766Z,28.87
2023-02-16T03:12:33.776Z,29.99
2023-02-16T03:13:33.770Z,26.68
2023-02-16T03:14:33.777Z,29.23
2023-02-16T03:15:33.762Z,29.92
2023-02-16T03:16:33.824Z,31.05
2023-02-16T03:17:33.854Z,25.77
2023-02-16T03:18:33.914Z,28.95
2023-02-16T03:19:33.966Z,29.99
2023-02-16T03:20:34.031Z,31.98
2023-02-16T03:21:34.096Z,26.40
2023-02-16T03:22:34.122Z,27.35
2023-02-16T03:23:34.191Z,29.23
2023-02-16T03:24:34.231Z,28.53
2023-02-16T03:25:34.268Z,29.93
2023-02-16T03:26:34.297Z,27.74
2023-02-16T03:27:34.344Z,28.64
2023-02-16T03:28:34.387Z,29.51
2023-02-16T03:29:34.433Z,27.44
2023-02-16T03:30:34.528Z,27.69
2023-02-16T03:31:34.694Z,28.60
2023-02-16T03:32:34.582Z,29.20
2023-02-16T03:33:34.632Z,28.38
2023-02-16T03:34:34.686Z,29.78
2023-02-16T03:35:34.695Z,27.03
2023-02-16T03:36:34.763Z,30.86
2023-02-16T03:37:34.806Z,25.00
2023-02-16T03:38:34.867Z,30.45
2023-02-16T03:39:34.926Z,28.21
2023-02-16T03:40:34.987Z,28.03
2023-02-16T03:41:35.086Z,29.41
2023-02-16T03:42:35.819Z,29.74
2023-02-16T03:43:35.153Z,28.35
2023-02-16T03:44:35.197Z,30.07
2023-02-16T03:45:35.348Z,27.28
2023-02-16T03:46:35.306Z,30.47
2023-02-16T03:47:35.354Z,29.62
2023-02-16T03:48:35.402Z,29.72
2023-02-16T03:49:35.485Z,28.11
2023-02-16T03:50:35.528Z,32.19
2023-02-16T03:51:35.572Z,29.07
2023-02-16T03:52:35.638Z,27.82
2023-02-16T03:53:35.698Z,25.47
2023-02-16T03:54:35.770Z,29.14
2023-02-16T03:55:35.818Z,28.61
2023-02-16T03:56:35.872Z,26.27
2023-02-16T03:57:35.924Z,31.21
2023-02-16T03:58:35.982Z,32.03
2023-02-16T03:59:36.045Z,30.20
2023-02-16T04:00:36.099Z,25.55
2023-02-16T04:01:36.162Z,28.24
2023-02-16T04:02:36.221Z,28.31
2023-02-16T04:03:36.282Z,29.96
2023-02-16T04:04:36.356Z,28.47
2023-02-16T04:05:36.392Z,29.26
2023-02-16T04:06:36.447Z,29.80
2023-02-16T04:07:36.519Z,26.49
2023-02-16T04:08:36.582Z,31.86
2023-02-16T04:28:37.860Z,31.94
2023-02-16T04:29:37.927Z,32.57
2023-02-16T04:30:38.239Z,31.04
2023-02-16T04:31:38.185Z,29.68
2023-02-16T04:32:38.115Z,31.97
2023-02-16T04:33:38.169Z,29.83
2023-02-16T04:34:38.236Z,30.40
2023-02-16T04:35:38.292Z,30.00
2023-02-16T04:36:38.348Z,30.60
2023-02-16T04:37:38.416Z,32.39
2023-02-16T04:38:38.457Z,30.21
2023-02-16T04:39:38.514Z,28.12
2023-02-16T04:40:38.576Z,31.28
2023-02-16T04:41:38.631Z,29.94
2023-02-16T04:42:38.718Z,29.81
2023-02-16T04:43:38.772Z,32.63
2023-02-16T04:44:38.842Z,28.75
2023-02-16T04:45:38.906Z,26.16
2023-02-16T04:46:38.974Z,33.17
2023-02-16T04:47:39.037Z,26.79
2023-02-16T04:48:39.108Z,31.74
2023-02-16T04:49:39.155Z,31.20
2023-02-16T04:50:39.256Z,30.04
2023-02-16T04:51:39.297Z,31.57
2023-02-16T04:52:39.340Z,28.37
2023-02-16T04:53:39.407Z,28.43
2023-02-16T04:54:39.391Z,28.72
2023-02-16T04:55:39.400Z,29.05
2023-02-16T04:56:39.400Z,30.22
2023-02-16T04:57:39.396Z,31.04
2023-02-16T04:58:39.404Z,29.54
2023-02-16T04:59:39.402Z,27.63
2023-02-16T05:00:39.415Z,32.24
2023-02-16T05:01:39.480Z,32.12
2023-02-16T05:02:39.423Z,30.58
2023-02-16T05:03:39.485Z,31.32
2023-02-16T05:04:39.616Z,30.45
2023-02-16T05:05:39.620Z,29.06
2023-02-16T05:06:39.703Z,29.48
2023-02-16T05:07:39.765Z,32.62
2023-02-16T05:08:39.830Z,27.04
2023-02-16T05:09:39.875Z,31.13
2023-02-16T05:10:39.922Z,29.34
2023-02-16T05:11:39.996Z,29.71
2023-02-16T05:12:40.053Z,27.23
2023-02-16T05:13:42.599Z,31.59
2023-02-16T05:14:40.281Z,32.37
2023-02-16T05:15:40.400Z,30.95
2023-02-16T05:16:40.391Z,33.16
2023-02-16T05:17:40.468Z,31.32
2023-02-16T05:18:40.523Z,31.46
2023-02-16T05:19:40.568Z,30.76
2023-02-16T05:20:40.643Z,31.16
2023-02-16T05:21:40.695Z,30.55
2023-02-16T05:22:40.752Z,30.45
2023-02-16T05:23:40.784Z,31.91
2023-02-16T05:24:40.829Z,31.90
2023-02-16T05:25:40.887Z,32.58
2023-02-16T05:26:40.941Z,32.71
2023-02-16T05:27:40.986Z,32.62
2023-02-16T05:28:41.052Z,32.16
2023-02-16T05:29:41.099Z,31.21
2023-02-16T05:30:41.203Z,30.23
2023-02-16T05:31:41.317Z,33.01
2023-02-16T05:32:41.237Z,29.79
2023-02-16T05:33:41.294Z,30.94
2023-02-16T05:34:41.334Z,32.13
2023-02-16T05:35:41.391Z,28.20
2023-02-16T05:36:41.424Z,31.19
2023-02-16T05:37:42.748Z,28.10
2023-02-16T05:38:41.570Z,30.65
2023-02-16T05:39:41.633Z,26.39
2023-02-16T05:40:41.658Z,28.76
2023-02-16T05:41:41.693Z,28.92
2023-02-16T05:42:41.726Z,30.66
2023-02-16T05:43:41.776Z,28.21
2023-02-16T05:44:41.844Z,29.01
2023-02-16T05:45:41.897Z,30.38
2023-02-16T05:46:41.944Z,29.52
2023-02-16T05:47:41.939Z,29.77
2023-02-16T05:48:41.948Z,29.72
2023-02-16T05:49:41.969Z,30.34
2023-02-16T05:50:41.958Z,29.92
2023-02-16T05:51:41.977Z,30.48
2023-02-16T05:52:41.991Z,31.33
2023-02-16T05:53:41.980Z,28.65
2023-02-16T05:54:41.974Z,33.05
2023-02-16T05:55:41.970Z,30.60
2023-02-16T05:56:41.977Z,28.95
2023-02-16T05:57:41.991Z,31.00
2023-02-16T05:58:42.017Z,31.00
2023-02-16T05:59:42.048Z,29.00
2023-02-16T06:00:42.069Z,27.75
2023-02-16T06:01:42.102Z,28.59
2023-02-16T06:02:42.154Z,32.59
2023-02-16T06:03:42.227Z,31.25
2023-02-16T06:04:42.190Z,32.16
2023-02-16T06:05:42.218Z,32.54
2023-02-16T06:06:42.250Z,29.35
2023-02-16T06:07:42.298Z,30.25
2023-02-16T06:08:42.340Z,32.11
2023-02-16T06:09:42.380Z,27.26
2023-02-16T06:10:42.421Z,25.81
2023-02-16T06:11:42.483Z,30.25
2023-02-16T06:12:44.805Z,32.37
2023-02-16T06:13:42.521Z,30.81
2023-02-16T06:14:42.560Z,29.61
2023-02-16T06:15:42.645Z,31.30
2023-02-16T06:16:42.616Z,29.97
2023-02-16T06:17:42.676Z,29.53
2023-02-16T06:18:44.847Z,29.06
2023-02-16T06:19:42.703Z,30.97
2023-02-16T06:20:42.727Z,30.56
2023-02-16T06:21:42.778Z,30.11
2023-02-16T06:22:42.837Z,27.47
2023-02-16T06:23:42.871Z,30.87
2023-02-16T06:24:42.921Z,29.49
2023-02-16T06:25:42.970Z,30.55
2023-02-16T06:26:43.018Z,31.53
2023-02-16T06:27:43.066Z,27.88
2023-02-16T06:28:43.096Z,29.74
2023-02-16T06:29:43.132Z,27.85
2023-02-16T06:30:43.161Z,29.24
2023-02-16T06:31:43.357Z,30.56
2023-02-16T06:32:43.196Z,34.22
2023-02-16T06:33:43.250Z,30.91
2023-02-16T06:34:43.257Z,28.00
2023-02-16T06:35:43.265Z,31.89
2023-02-16T06:36:43.281Z,33.00
2023-02-16T06:37:43.270Z,27.42
2023-02-16T06:38:43.286Z,29.31
2023-02-16T06:39:43.288Z,29.87
2023-02-16T06:40:43.291Z,30.81
2023-02-16T06:41:43.285Z,30.46
2023-02-16T06:42:43.292Z,29.52
2023-02-16T06:43:43.309Z,29.31
2023-02-16T06:44:43.325Z,27.95
2023-02-16T06:45:43.328Z,27.53
2023-02-16T06:46:43.453Z,30.88
2023-02-16T06:47:43.353Z,29.44
2023-02-16T06:48:43.364Z,31.50
2023-02-16T06:49:43.394Z,31.41
2023-02-16T06:50:43.402Z,30.12
2023-02-16T06:51:43.430Z,30.93
2023-02-16T06:52:43.446Z,29.20
2023-02-16T06:53:43.453Z,30.40
2023-02-16T06:54:43.455Z,28.98
2023-02-16T06:55:43.457Z,28.77
2023-02-16T06:56:43.494Z,30.20
2023-02-16T06:57:43.493Z,30.46
2023-02-16T06:58:43.491Z,29.22
2023-02-16T06:59:43.522Z,28.41
2023-02-16T07:00:43.576Z,30.36
2023-02-16T07:01:45.237Z,28.01
2023-02-16T07:02:43.540Z,33.14
2023-02-16T07:03:43.564Z,29.83
2023-02-16T07:04:43.591Z,30.21
2023-02-16T07:05:43.577Z,30.94
2023-02-16T07:06:43.602Z,32.14
2023-02-16T07:07:43.596Z,30.78
2023-02-16T07:08:43.615Z,31.84
2023-02-16T07:09:43.645Z,30.67
2023-02-16T07:10:49.793Z,32.36
2023-02-16T11:55:47.800Z,39.85
2023-02-16T11:56:47.830Z,33.40
2023-02-16T11:57:47.845Z,40.52
2023-02-16T11:58:47.885Z,39.86
2023-02-16T11:59:47.910Z,37.35
2023-02-16T12:00:47.937Z,39.47
2023-02-16T12:01:47.979Z,42.71
2023-02-16T12:02:48.006Z,39.97
2023-02-16T12:03:48.077Z,39.87
2023-02-16T12:04:48.101Z,40.29
2023-02-16T12:05:48.164Z,38.62
2023-02-16T12:06:48.197Z,40.52
2023-02-16T12:07:48.259Z,41.30
2023-02-16T12:08:48.315Z,39.57
2023-02-16T12:09:48.358Z,38.86
2023-02-16T12:10:48.435Z,41.29
2023-02-16T12:11:48.495Z,40.13
2023-02-16T12:12:48.542Z,39.16
2023-02-16T12:13:48.574Z,38.57
2023-02-16T12:14:48.637Z,38.49
2023-02-16T12:15:48.696Z,40.27
2023-02-16T12:16:48.818Z,41.12
2023-02-16T12:17:48.834Z,40.57
2023-02-16T12:18:48.887Z,37.44
2023-02-16T12:19:48.939Z,40.14
2023-02-16T12:20:49.956Z,39.31
2023-02-16T12:21:49.068Z,39.00
2023-02-16T12:22:49.143Z,38.47
2023-02-16T12:23:49.215Z,38.53
2023-02-16T12:24:49.277Z,38.87
2023-02-16T12:25:49.333Z,40.31
2023-02-16T12:26:49.396Z,41.24
2023-02-16T12:27:49.464Z,39.82
2023-02-16T12:28:49.541Z,37.34
2023-02-16T12:29:49.609Z,38.61
2023-02-16T12:30:49.719Z,39.44
2023-02-16T12:31:49.777Z,37.12
2023-02-16T12:32:49.804Z,39.53
2023-02-16T12:33:49.868Z,41.51
2023-02-16T12:34:49.928Z,40.85
2023-02-16T12:35:49.994Z,37.69
2023-02-16T12:36:50.049Z,40.10
2023-02-16T12:37:50.116Z,39.53
2023-02-16T12:38:50.188Z,39.54
2023-02-16T12:39:50.259Z,39.98
2023-02-16T12:40:50.335Z,40.40
2023-02-16T12:41:50.464Z,41.26
2023-02-16T12:42:50.453Z,41.10
2023-02-16T12:43:50.524Z,39.87
2023-02-16T12:44:50.586Z,40.79
2023-02-16T12:45:50.700Z,40.21
2023-02-16T12:46:50.714Z,40.45
2023-02-16T12:47:50.760Z,40.04
2023-02-16T12:48:50.825Z,38.77
2023-02-16T12:49:50.867Z,39.10
2023-02-16T12:50:50.955Z,39.61
2023-02-16T12:51:51.021Z,40.16
2023-02-16T16:11:07.820Z,28.52
2023-02-16T16:12:07.887Z,33.20
2023-02-16T16:13:07.939Z,26.73
2023-02-16T16:14:07.989Z,29.01
2023-02-16T16:15:08.055Z,26.21
2023-02-16T16:16:08.625Z,29.97
2023-02-16T16:17:08.171Z,29.46
2023-02-16T16:18:08.235Z,27.75
2023-02-16T16:19:08.288Z,30.97
2023-02-16T16:20:08.415Z,29.12
2023-02-16T16:21:08.414Z,31.23
2023-02-16T16:22:08.489Z,29.03
2023-02-16T16:23:08.561Z,30.65
2023-02-16T16:24:08.620Z,29.81
2023-02-16T16:25:08.681Z,27.93
2023-02-16T16:26:08.805Z,28.80
2023-02-16T16:27:08.831Z,27.12
2023-02-16T16:28:08.891Z,29.39
2023-02-16T16:29:08.949Z,29.37
2023-02-16T16:30:09.073Z,30.21
2023-02-16T16:31:09.314Z,29.71
2023-02-16T16:32:09.212Z,29.15
2023-02-16T16:33:09.241Z,28.94
2023-02-16T16:34:09.273Z,29.85
2023-02-16T16:35:09.356Z,28.15
2023-02-16T16:36:09.424Z,29.45
2023-02-16T16:37:09.496Z,29.64
2023-02-16T16:38:09.546Z,27.92
2023-02-16T16:54:10.524Z,28.76
2023-02-16T19:08:17.828Z,26.54
2023-02-16T19:09:17.868Z,27.87
2023-02-16T19:10:17.926Z,29.17
2023-02-16T19:11:17.956Z,29.62
2023-02-16T19:12:18.008Z,29.02
2023-02-16T19:13:18.063Z,30.03
2023-02-16T19:14:18.113Z,28.36
2023-02-16T19:15:18.173Z,31.53
2023-02-16T19:27:18.784Z,25.69
2023-02-16T19:28:18.828Z,27.60
2023-02-16T19:29:18.873Z,30.09
2023-02-16T19:30:19.003Z,27.72
2023-02-16T19:31:19.077Z,28.54
2023-02-16T19:32:19.020Z,28.86
2023-02-16T19:33:19.088Z,29.77
2023-02-16T19:34:19.139Z,31.83
2023-02-16T19:35:19.186Z,34.90
2023-02-16T19:36:19.230Z,28.91
2023-02-16T19:37:19.284Z,28.86
2023-02-16T19:38:19.343Z,29.07
2023-02-16T19:39:19.387Z,30.18
2023-02-16T19:40:19.461Z,27.83
2023-02-16T19:41:19.516Z,27.69
2023-02-16T19:42:19.552Z,32.23
2023-02-16T19:43:19.619Z,32.35
2023-02-16T19:44:19.660Z,30.81
2023-02-16T19:45:19.714Z,27.89
2023-02-16T19:46:19.835Z,31.28
2023-02-16T19:47:19.838Z,27.91
2023-02-16T19:48:19.895Z,28.43
2023-02-16T19:49:19.940Z,29.03
2023-02-16T19:50:19.985Z,31.65
2023-02-16T19:51:20.026Z,26.90
2023-02-16T19:52:20.087Z,25.62
2023-02-16T19:53:20.135Z,30.32
2023-02-16T19:54:20.194Z,31.27
2023-02-16T19:55:20.256Z,34.08
2023-02-16T19:56:20.321Z,28.60
2023-02-16T19:57:20.366Z,30.47
2023-02-16T19:58:20.414Z,30.83
2023-02-16T19:59:20.452Z,29.52
2023-02-16T20:00:20.500Z,29.98
2023-02-16T20:01:20.584Z,30.60
2023-02-16T20:02:20.675Z,27.81
2023-02-16T20:03:20.689Z,28.60
2023-02-16T20:04:20.721Z,29.20
2023-02-16T20:05:20.761Z,27.32
2023-02-16T20:06:20.812Z,29.52
2023-02-16T20:07:20.852Z,27.63
2023-02-16T20:08:20.905Z,31.34
2023-02-16T20:09:20.962Z,28.94
2023-02-16T20:10:21.012Z,32.93
2023-02-16T20:11:21.087Z,31.67
2023-02-16T20:12:21.133Z,30.49
2023-02-16T20:13:21.189Z,31.05
2023-02-16T21:17:00.886Z,25.00
2023-02-16T21:18:00.878Z,25.00
2023-02-16T21:19:00.859Z,25.00
2023-02-16T21:20:00.833Z,25.00
2023-02-16T21:21:00.849Z,25.00
2023-02-16T21:22:00.827Z,25.00
2023-02-16T21:23:00.810Z,27.21
2023-02-16T21:24:00.805Z,25.27
2023-02-16T21:25:00.775Z,27.65
2023-02-16T21:26:00.799Z,28.52
2023-02-16T21:27:00.750Z,27.51
2023-02-16T21:28:00.741Z,27.89
2023-02-16T21:29:00.721Z,26.59
2023-02-16T21:30:00.737Z,26.73
2023-02-16T21:31:00.725Z,28.79
2023-02-16T21:32:00.801Z,32.29
2023-02-16T21:33:00.685Z,29.13
2023-02-16T21:34:00.667Z,31.10
2023-02-16T21:35:00.647Z,28.83
2023-02-16T21:36:00.640Z,27.59
2023-02-16T21:37:00.621Z,30.63
2023-02-16T22:11:00.999Z,27.65
2023-02-16T22:21:01.429Z,31.59
2023-02-16T22:22:01.478Z,30.53
2023-02-16T22:23:01.545Z,31.27
2023-02-16T22:24:01.567Z,28.11
2023-02-16T22:25:01.615Z,32.30
2023-02-16T22:26:01.669Z,28.28
2023-02-16T22:27:01.708Z,26.83
2023-02-16T22:28:01.748Z,29.16
2023-02-16T22:29:01.808Z,31.01
2023-02-16T23:34:04.744Z,27.17
2023-02-16T23:35:04.795Z,27.98
2023-02-16T23:42:05.130Z,29.19
